sensor_id;sensor_type;location;lat;lon;timestamp;P1;durP1;ratioP1;P2;durP2;ratioP2
70342;SDS011;57767;42.068;24.752;2023-10-09T00:00:25;5.60;;;2.30;;
70342;SDS011;57767;42.068;24.752;2023-10-09T00:01:35;9.85;;;2.05;;
70342;SDS011;57767;42.068;24.752;2023-10-09T00:02:39;6.07;;;2.25;;
70342;SDS011;57767;42.068;24.752;2023-10-09T00:03:44;8.43;;;2.17;;
70342;SDS011;57767;42.068;24.752;2023-10-09T00:04:47;13.73;;;2.50;;
70342;SDS011;57767;42.068;24.752;2023-10-09T00:05:49;15.55;;;2.70;;
70342;SDS011;57767;42.068;24.752;2023-10-09T00:06:55;8.98;;;2.33;;
70342;SDS011;57767;42.068;24.752;2023-10-09T00:08:00;10.23;;;2.38;;
70342;SDS011;57767;42.068;24.752;2023-10-09T00:09:05;8.05;;;2.28;;
70342;SDS011;57767;42.068;24.752;2023-10-09T00:10:33;10.85;;;2.10;;
70342;SDS011;57767;42.068;24.752;2023-10-09T00:11:46;6.47;;;2.17;;
70342;SDS011;57767;42.068;24.752;2023-10-09T00:12:49;10.65;;;1.80;;
70342;SDS011;57767;42.068;24.752;2023-10-09T00:13:51;7.38;;;2.00;;
70342;SDS011;57767;42.068;24.752;2023-10-09T00:14:53;8.02;;;2.45;;
70342;SDS011;57767;42.068;24.752;2023-10-09T00:16:03;9.10;;;2.25;;
70342;SDS011;57767;42.068;24.752;2023-10-09T00:17:15;10.98;;;3.22;;
70342;SDS011;57767;42.068;24.752;2023-10-09T00:18:22;6.35;;;2.20;;
70342;SDS011;57767;42.068;24.752;2023-10-09T00:19:30;4.93;;;2.35;;
70342;SDS011;57767;42.068;24.752;2023-10-09T00:20:37;6.68;;;2.45;;
70342;SDS011;57767;42.068;24.752;2023-10-09T00:21:44;13.07;;;2.20;;
70342;SDS011;57767;42.068;24.752;2023-10-09T00:22:47;15.52;;;2.17;;
70342;SDS011;57767;42.068;24.752;2023-10-09T00:23:48;9.77;;;2.38;;
70342;SDS011;57767;42.068;24.752;2023-10-09T00:25:00;8.73;;;2.22;;
70342;SDS011;57767;42.068;24.752;2023-10-09T00:26:22;9.73;;;2.30;;
70342;SDS011;57767;42.068;24.752;2023-10-09T00:27:24;11.63;;;2.38;;
70342;SDS011;57767;42.068;24.752;2023-10-09T00:28:33;8.93;;;1.80;;
70342;SDS011;57767;42.068;24.752;2023-10-09T00:29:35;13.55;;;2.28;;
70342;SDS011;57767;42.068;24.752;2023-10-09T00:30:43;10.95;;;2.47;;
70342;SDS011;57767;42.068;24.752;2023-10-09T00:31:45;11.80;;;2.45;;
70342;SDS011;57767;42.068;24.752;2023-10-09T00:32:51;9.13;;;2.00;;
70342;SDS011;57767;42.068;24.752;2023-10-09T00:34:01;10.25;;;2.17;;
70342;SDS011;57767;42.068;24.752;2023-10-09T00:35:06;9.68;;;2.40;;
70342;SDS011;57767;42.068;24.752;2023-10-09T00:36:26;7.07;;;2.20;;
70342;SDS011;57767;42.068;24.752;2023-10-09T00:37:31;11.75;;;2.80;;
70342;SDS011;57767;42.068;24.752;2023-10-09T00:38:36;10.73;;;2.47;;
70342;SDS011;57767;42.068;24.752;2023-10-09T00:39:46;13.18;;;2.58;;
70342;SDS011;57767;42.068;24.752;2023-10-09T00:40:50;10.05;;;2.35;;
70342;SDS011;57767;42.068;24.752;2023-10-09T00:42:11;8.50;;;2.13;;
70342;SDS011;57767;42.068;24.752;2023-10-09T00:43:27;13.15;;;2.70;;
70342;SDS011;57767;42.068;24.752;2023-10-09T00:44:32;8.85;;;2.38;;
70342;SDS011;57767;42.068;24.752;2023-10-09T00:45:49;13.93;;;2.75;;
70342;SDS011;57767;42.068;24.752;2023-10-09T00:46:52;10.63;;;2.35;;
70342;SDS011;57767;42.068;24.752;2023-10-09T00:47:55;15.45;;;2.60;;
70342;SDS011;57767;42.068;24.752;2023-10-09T00:49:00;7.05;;;2.20;;
70342;SDS011;57767;42.068;24.752;2023-10-09T00:50:05;7.28;;;2.30;;
70342;SDS011;57767;42.068;24.752;2023-10-09T00:51:23;11.50;;;2.13;;
70342;SDS011;57767;42.068;24.752;2023-10-09T00:52:30;8.77;;;2.15;;
70342;SDS011;57767;42.068;24.752;2023-10-09T00:53:34;8.95;;;2.03;;
70342;SDS011;57767;42.068;24.752;2023-10-09T00:54:36;10.40;;;2.30;;
70342;SDS011;57767;42.068;24.752;2023-10-09T00:55:42;13.38;;;2.33;;
70342;SDS011;57767;42.068;24.752;2023-10-09T00:56:44;13.90;;;2.22;;
70342;SDS011;57767;42.068;24.752;2023-10-09T00:57:53;13.90;;;2.53;;
70342;SDS011;57767;42.068;24.752;2023-10-09T00:59:01;11.18;;;2.47;;
70342;SDS011;57767;42.068;24.752;2023-10-09T01:00:24;8.50;;;2.47;;
70342;SDS011;57767;42.068;24.752;2023-10-09T01:02:59;9.32;;;2.45;;
70342;SDS011;57767;42.068;24.752;2023-10-09T01:04:20;17.75;;;2.22;;
70342;SDS011;57767;42.068;24.752;2023-10-09T01:05:23;10.73;;;2.50;;
70342;SDS011;57767;42.068;24.752;2023-10-09T01:06:27;10.68;;;2.17;;
70342;SDS011;57767;42.068;24.752;2023-10-09T01:07:34;7.78;;;2.10;;
70342;SDS011;57767;42.068;24.752;2023-10-09T01:08:38;5.88;;;1.83;;
70342;SDS011;57767;42.068;24.752;2023-10-09T01:09:41;7.55;;;2.35;;
70342;SDS011;57767;42.068;24.752;2023-10-09T01:10:46;8.02;;;2.13;;
70342;SDS011;57767;42.068;24.752;2023-10-09T01:11:57;11.82;;;2.67;;
70342;SDS011;57767;42.068;24.752;2023-10-09T01:13:03;8.20;;;2.35;;
70342;SDS011;57767;42.068;24.752;2023-10-09T01:14:05;8.32;;;2.78;;
70342;SDS011;57767;42.068;24.752;2023-10-09T01:15:09;10.13;;;2.30;;
70342;SDS011;57767;42.068;24.752;2023-10-09T01:16:31;12.02;;;2.15;;
70342;SDS011;57767;42.068;24.752;2023-10-09T01:17:34;9.65;;;2.38;;
70342;SDS011;57767;42.068;24.752;2023-10-09T01:18:40;9.10;;;2.72;;
70342;SDS011;57767;42.068;24.752;2023-10-09T01:19:42;9.50;;;2.58;;
70342;SDS011;57767;42.068;24.752;2023-10-09T01:20:44;15.10;;;2.65;;
70342;SDS011;57767;42.068;24.752;2023-10-09T01:21:47;9.20;;;3.00;;
70342;SDS011;57767;42.068;24.752;2023-10-09T01:22:49;12.82;;;2.33;;
70342;SDS011;57767;42.068;24.752;2023-10-09T01:23:55;16.55;;;2.65;;
70342;SDS011;57767;42.068;24.752;2023-10-09T01:25:09;14.90;;;3.00;;
70342;SDS011;57767;42.068;24.752;2023-10-09T01:26:11;16.50;;;2.35;;
70342;SDS011;57767;42.068;24.752;2023-10-09T01:27:13;9.90;;;2.53;;
70342;SDS011;57767;42.068;24.752;2023-10-09T01:28:17;8.88;;;2.80;;
70342;SDS011;57767;42.068;24.752;2023-10-09T01:29:20;16.92;;;2.85;;
70342;SDS011;57767;42.068;24.752;2023-10-09T01:30:23;9.73;;;2.60;;
70342;SDS011;57767;42.068;24.752;2023-10-09T01:31:25;9.93;;;2.50;;
70342;SDS011;57767;42.068;24.752;2023-10-09T01:32:39;10.35;;;3.35;;
70342;SDS011;57767;42.068;24.752;2023-10-09T01:33:42;10.00;;;2.53;;
70342;SDS011;57767;42.068;24.752;2023-10-09T01:34:43;12.93;;;2.60;;
70342;SDS011;57767;42.068;24.752;2023-10-09T01:35:47;12.82;;;2.22;;
70342;SDS011;57767;42.068;24.752;2023-10-09T01:36:51;11.48;;;2.83;;
70342;SDS011;57767;42.068;24.752;2023-10-09T01:37:57;18.90;;;2.40;;
70342;SDS011;57767;42.068;24.752;2023-10-09T01:38:59;9.02;;;3.33;;
70342;SDS011;57767;42.068;24.752;2023-10-09T01:40:02;10.70;;;2.30;;
70342;SDS011;57767;42.068;24.752;2023-10-09T01:41:22;16.70;;;2.97;;
70342;SDS011;57767;42.068;24.752;2023-10-09T01:42:24;8.25;;;2.40;;
70342;SDS011;57767;42.068;24.752;2023-10-09T01:43:36;8.75;;;2.85;;
70342;SDS011;57767;42.068;24.752;2023-10-09T01:44:40;12.73;;;3.08;;
70342;SDS011;57767;42.068;24.752;2023-10-09T01:45:45;14.07;;;2.67;;
70342;SDS011;57767;42.068;24.752;2023-10-09T01:46:48;11.20;;;2.67;;
70342;SDS011;57767;42.068;24.752;2023-10-09T01:47:54;11.73;;;3.05;;
70342;SDS011;57767;42.068;24.752;2023-10-09T01:48:56;14.70;;;2.85;;
70342;SDS011;57767;42.068;24.752;2023-10-09T01:50:00;11.70;;;2.78;;
70342;SDS011;57767;42.068;24.752;2023-10-09T01:51:08;8.52;;;2.22;;
70342;SDS011;57767;42.068;24.752;2023-10-09T01:52:15;9.23;;;2.88;;
70342;SDS011;57767;42.068;24.752;2023-10-09T01:53:17;10.40;;;2.50;;
70342;SDS011;57767;42.068;24.752;2023-10-09T01:54:20;11.50;;;2.78;;
70342;SDS011;57767;42.068;24.752;2023-10-09T01:55:54;8.73;;;2.60;;
70342;SDS011;57767;42.068;24.752;2023-10-09T01:56:57;11.35;;;2.63;;
70342;SDS011;57767;42.068;24.752;2023-10-09T01:57:58;11.32;;;2.70;;
70342;SDS011;57767;42.068;24.752;2023-10-09T01:59:19;11.98;;;2.67;;
70342;SDS011;57767;42.068;24.752;2023-10-09T02:00:21;10.95;;;2.75;;
70342;SDS011;57767;42.068;24.752;2023-10-09T02:01:30;5.13;;;2.30;;
70342;SDS011;57767;42.068;24.752;2023-10-09T02:02:33;12.98;;;2.92;;
70342;SDS011;57767;42.068;24.752;2023-10-09T02:03:35;9.68;;;2.75;;
70342;SDS011;57767;42.068;24.752;2023-10-09T02:04:39;12.57;;;2.63;;
70342;SDS011;57767;42.068;24.752;2023-10-09T02:05:43;12.38;;;2.60;;
70342;SDS011;57767;42.068;24.752;2023-10-09T02:06:45;15.15;;;3.22;;
70342;SDS011;57767;42.068;24.752;2023-10-09T02:07:47;7.95;;;2.22;;
70342;SDS011;57767;42.068;24.752;2023-10-09T02:08:54;11.65;;;2.22;;
70342;SDS011;57767;42.068;24.752;2023-10-09T02:09:57;14.45;;;2.47;;
70342;SDS011;57767;42.068;24.752;2023-10-09T02:10:59;9.75;;;2.88;;
70342;SDS011;57767;42.068;24.752;2023-10-09T02:12:03;9.32;;;2.50;;
70342;SDS011;57767;42.068;24.752;2023-10-09T02:13:06;5.68;;;2.28;;
70342;SDS011;57767;42.068;24.752;2023-10-09T02:14:11;11.40;;;2.60;;
70342;SDS011;57767;42.068;24.752;2023-10-09T02:15:23;9.50;;;2.97;;
70342;SDS011;57767;42.068;24.752;2023-10-09T02:16:48;10.80;;;2.25;;
70342;SDS011;57767;42.068;24.752;2023-10-09T02:19:20;6.55;;;2.35;;
70342;SDS011;57767;42.068;24.752;2023-10-09T02:20:33;6.35;;;2.50;;
70342;SDS011;57767;42.068;24.752;2023-10-09T02:21:39;11.88;;;2.55;;
70342;SDS011;57767;42.068;24.752;2023-10-09T02:22:46;8.75;;;2.92;;
70342;SDS011;57767;42.068;24.752;2023-10-09T02:23:47;13.02;;;2.60;;
70342;SDS011;57767;42.068;24.752;2023-10-09T02:24:49;6.57;;;2.42;;
70342;SDS011;57767;42.068;24.752;2023-10-09T02:25:59;10.95;;;2.35;;
70342;SDS011;57767;42.068;24.752;2023-10-09T02:27:08;15.88;;;2.45;;
70342;SDS011;57767;42.068;24.752;2023-10-09T02:28:12;19.50;;;2.50;;
70342;SDS011;57767;42.068;24.752;2023-10-09T02:29:19;17.85;;;2.08;;
70342;SDS011;57767;42.068;24.752;2023-10-09T02:30:25;12.88;;;2.38;;
70342;SDS011;57767;42.068;24.752;2023-10-09T02:31:30;19.98;;;2.60;;
70342;SDS011;57767;42.068;24.752;2023-10-09T02:32:43;14.77;;;2.30;;
70342;SDS011;57767;42.068;24.752;2023-10-09T02:33:44;5.68;;;1.80;;
70342;SDS011;57767;42.068;24.752;2023-10-09T02:34:46;16.35;;;2.33;;
70342;SDS011;57767;42.068;24.752;2023-10-09T02:35:48;18.02;;;1.98;;
70342;SDS011;57767;42.068;24.752;2023-10-09T02:36:52;18.88;;;2.30;;
70342;SDS011;57767;42.068;24.752;2023-10-09T02:38:07;15.48;;;1.70;;
70342;SDS011;57767;42.068;24.752;2023-10-09T02:39:09;16.40;;;1.90;;
70342;SDS011;57767;42.068;24.752;2023-10-09T02:40:28;15.93;;;1.85;;
70342;SDS011;57767;42.068;24.752;2023-10-09T02:41:41;17.55;;;2.22;;
70342;SDS011;57767;42.068;24.752;2023-10-09T02:42:51;14.25;;;2.42;;
70342;SDS011;57767;42.068;24.752;2023-10-09T02:43:52;16.58;;;2.13;;
70342;SDS011;57767;42.068;24.752;2023-10-09T02:44:56;17.00;;;2.80;;
70342;SDS011;57767;42.068;24.752;2023-10-09T02:46:01;13.02;;;2.25;;
70342;SDS011;57767;42.068;24.752;2023-10-09T02:47:15;17.23;;;2.33;;
70342;SDS011;57767;42.068;24.752;2023-10-09T02:48:31;19.92;;;2.00;;
70342;SDS011;57767;42.068;24.752;2023-10-09T02:49:38;19.52;;;2.42;;
70342;SDS011;57767;42.068;24.752;2023-10-09T02:50:42;7.38;;;1.77;;
70342;SDS011;57767;42.068;24.752;2023-10-09T02:51:46;12.88;;;1.88;;
70342;SDS011;57767;42.068;24.752;2023-10-09T02:52:54;18.25;;;1.95;;
70342;SDS011;57767;42.068;24.752;2023-10-09T02:54:09;12.80;;;2.03;;
70342;SDS011;57767;42.068;24.752;2023-10-09T02:55:28;26.13;;;2.70;;
70342;SDS011;57767;42.068;24.752;2023-10-09T02:56:30;9.77;;;2.35;;
70342;SDS011;57767;42.068;24.752;2023-10-09T02:57:44;15.45;;;1.98;;
70342;SDS011;57767;42.068;24.752;2023-10-09T02:58:46;8.23;;;1.98;;
70342;SDS011;57767;42.068;24.752;2023-10-09T02:59:49;16.30;;;2.00;;
70342;SDS011;57767;42.068;24.752;2023-10-09T03:00:52;10.23;;;2.17;;
70342;SDS011;57767;42.068;24.752;2023-10-09T03:01:54;6.90;;;1.67;;
70342;SDS011;57767;42.068;24.752;2023-10-09T03:02:56;10.60;;;2.20;;
70342;SDS011;57767;42.068;24.752;2023-10-09T03:04:00;14.00;;;1.90;;
70342;SDS011;57767;42.068;24.752;2023-10-09T03:05:03;8.93;;;1.83;;
70342;SDS011;57767;42.068;24.752;2023-10-09T03:06:05;13.85;;;2.08;;
70342;SDS011;57767;42.068;24.752;2023-10-09T03:07:12;12.13;;;1.60;;
70342;SDS011;57767;42.068;24.752;2023-10-09T03:08:15;3.15;;;1.42;;
70342;SDS011;57767;42.068;24.752;2023-10-09T03:09:18;8.80;;;1.92;;
70342;SDS011;57767;42.068;24.752;2023-10-09T03:10:27;3.65;;;1.30;;
70342;SDS011;57767;42.068;24.752;2023-10-09T03:11:29;7.32;;;1.55;;
70342;SDS011;57767;42.068;24.752;2023-10-09T03:12:33;15.02;;;1.63;;
70342;SDS011;57767;42.068;24.752;2023-10-09T03:13:36;5.07;;;1.45;;
70342;SDS011;57767;42.068;24.752;2023-10-09T03:14:38;11.77;;;1.88;;
70342;SDS011;57767;42.068;24.752;2023-10-09T03:15:43;9.82;;;1.75;;
70342;SDS011;57767;42.068;24.752;2023-10-09T03:16:44;10.20;;;1.63;;
70342;SDS011;57767;42.068;24.752;2023-10-09T03:17:46;12.65;;;1.95;;
70342;SDS011;57767;42.068;24.752;2023-10-09T03:18:52;6.43;;;2.00;;
70342;SDS011;57767;42.068;24.752;2023-10-09T03:19:54;23.63;;;2.05;;
70342;SDS011;57767;42.068;24.752;2023-10-09T03:20:56;17.00;;;1.98;;
70342;SDS011;57767;42.068;24.752;2023-10-09T03:21:57;12.35;;;2.03;;
70342;SDS011;57767;42.068;24.752;2023-10-09T03:22:59;11.15;;;1.77;;
70342;SDS011;57767;42.068;24.752;2023-10-09T03:24:02;10.60;;;1.70;;
70342;SDS011;57767;42.068;24.752;2023-10-09T03:25:08;17.63;;;2.10;;
70342;SDS011;57767;42.068;24.752;2023-10-09T03:26:16;13.20;;;1.30;;
70342;SDS011;57767;42.068;24.752;2023-10-09T03:27:22;12.02;;;1.70;;
70342;SDS011;57767;42.068;24.752;2023-10-09T03:28:24;9.02;;;1.58;;
70342;SDS011;57767;42.068;24.752;2023-10-09T03:29:26;11.85;;;1.52;;
70342;SDS011;57767;42.068;24.752;2023-10-09T03:30:29;13.25;;;1.85;;
70342;SDS011;57767;42.068;24.752;2023-10-09T03:31:34;10.38;;;1.98;;
70342;SDS011;57767;42.068;24.752;2023-10-09T03:32:35;9.77;;;1.70;;
70342;SDS011;57767;42.068;24.752;2023-10-09T03:33:37;10.95;;;1.73;;
70342;SDS011;57767;42.068;24.752;2023-10-09T03:34:39;5.15;;;1.50;;
70342;SDS011;57767;42.068;24.752;2023-10-09T03:35:41;6.50;;;1.60;;
70342;SDS011;57767;42.068;24.752;2023-10-09T03:36:43;4.63;;;1.58;;
70342;SDS011;57767;42.068;24.752;2023-10-09T03:37:45;9.48;;;1.38;;
70342;SDS011;57767;42.068;24.752;2023-10-09T03:38:47;15.27;;;1.85;;
70342;SDS011;57767;42.068;24.752;2023-10-09T03:39:49;13.07;;;2.05;;
70342;SDS011;57767;42.068;24.752;2023-10-09T03:40:56;17.33;;;1.95;;
70342;SDS011;57767;42.068;24.752;2023-10-09T03:41:58;9.32;;;1.75;;
70342;SDS011;57767;42.068;24.752;2023-10-09T03:43:00;16.35;;;1.77;;
70342;SDS011;57767;42.068;24.752;2023-10-09T03:44:02;9.02;;;1.60;;
70342;SDS011;57767;42.068;24.752;2023-10-09T03:45:04;10.25;;;1.70;;
70342;SDS011;57767;42.068;24.752;2023-10-09T03:46:20;8.50;;;2.15;;
70342;SDS011;57767;42.068;24.752;2023-10-09T03:47:23;9.02;;;2.00;;
70342;SDS011;57767;42.068;24.752;2023-10-09T03:48:26;12.48;;;2.00;;
70342;SDS011;57767;42.068;24.752;2023-10-09T03:49:33;14.77;;;2.78;;
70342;SDS011;57767;42.068;24.752;2023-10-09T03:50:35;15.90;;;2.00;;
70342;SDS011;57767;42.068;24.752;2023-10-09T03:51:39;21.45;;;2.03;;
70342;SDS011;57767;42.068;24.752;2023-10-09T03:52:41;11.63;;;1.90;;
70342;SDS011;57767;42.068;24.752;2023-10-09T03:53:43;9.43;;;2.30;;
70342;SDS011;57767;42.068;24.752;2023-10-09T03:54:45;8.88;;;1.70;;
70342;SDS011;57767;42.068;24.752;2023-10-09T03:55:48;10.00;;;1.85;;
70342;SDS011;57767;42.068;24.752;2023-10-09T03:56:50;11.40;;;1.70;;
70342;SDS011;57767;42.068;24.752;2023-10-09T03:57:52;8.50;;;1.60;;
70342;SDS011;57767;42.068;24.752;2023-10-09T03:58:54;20.48;;;2.28;;
70342;SDS011;57767;42.068;24.752;2023-10-09T03:59:56;11.05;;;1.45;;
70342;SDS011;57767;42.068;24.752;2023-10-09T04:00:58;18.25;;;1.70;;
70342;SDS011;57767;42.068;24.752;2023-10-09T04:01:59;16.13;;;1.95;;
70342;SDS011;57767;42.068;24.752;2023-10-09T04:03:01;18.42;;;2.15;;
70342;SDS011;57767;42.068;24.752;2023-10-09T04:04:06;12.98;;;1.77;;
70342;SDS011;57767;42.068;24.752;2023-10-09T04:05:11;8.52;;;1.88;;
70342;SDS011;57767;42.068;24.752;2023-10-09T04:06:13;5.90;;;1.65;;
70342;SDS011;57767;42.068;24.752;2023-10-09T04:07:18;10.05;;;1.80;;
70342;SDS011;57767;42.068;24.752;2023-10-09T04:08:20;8.00;;;1.42;;
70342;SDS011;57767;42.068;24.752;2023-10-09T04:09:22;7.25;;;1.65;;
70342;SDS011;57767;42.068;24.752;2023-10-09T04:10:24;9.38;;;1.75;;
70342;SDS011;57767;42.068;24.752;2023-10-09T04:11:45;8.35;;;2.00;;
70342;SDS011;57767;42.068;24.752;2023-10-09T04:12:47;8.75;;;2.03;;
70342;SDS011;57767;42.068;24.752;2023-10-09T04:13:54;11.20;;;2.17;;
70342;SDS011;57767;42.068;24.752;2023-10-09T04:14:57;11.77;;;1.75;;
70342;SDS011;57767;42.068;24.752;2023-10-09T04:16:02;10.02;;;1.90;;
70342;SDS011;57767;42.068;24.752;2023-10-09T04:17:24;9.43;;;1.58;;
70342;SDS011;57767;42.068;24.752;2023-10-09T04:18:36;14.50;;;1.85;;
70342;SDS011;57767;42.068;24.752;2023-10-09T04:19:40;11.15;;;1.85;;
70342;SDS011;57767;42.068;24.752;2023-10-09T04:20:49;14.50;;;2.03;;
70342;SDS011;57767;42.068;24.752;2023-10-09T04:22:16;19.55;;;2.45;;
70342;SDS011;57767;42.068;24.752;2023-10-09T04:23:28;16.70;;;2.22;;
70342;SDS011;57767;42.068;24.752;2023-10-09T04:24:48;12.98;;;2.00;;
70342;SDS011;57767;42.068;24.752;2023-10-09T04:25:52;11.45;;;1.70;;
70342;SDS011;57767;42.068;24.752;2023-10-09T04:26:54;9.10;;;1.88;;
70342;SDS011;57767;42.068;24.752;2023-10-09T04:27:59;20.08;;;2.50;;
70342;SDS011;57767;42.068;24.752;2023-10-09T04:29:16;16.63;;;2.50;;
70342;SDS011;57767;42.068;24.752;2023-10-09T04:30:28;13.50;;;1.98;;
70342;SDS011;57767;42.068;24.752;2023-10-09T04:31:30;16.08;;;2.63;;
70342;SDS011;57767;42.068;24.752;2023-10-09T04:32:38;16.98;;;2.75;;
70342;SDS011;57767;42.068;24.752;2023-10-09T04:33:41;15.07;;;2.00;;
70342;SDS011;57767;42.068;24.752;2023-10-09T04:34:55;13.13;;;1.80;;
70342;SDS011;57767;42.068;24.752;2023-10-09T04:36:20;16.70;;;2.40;;
70342;SDS011;57767;42.068;24.752;2023-10-09T04:37:22;8.52;;;1.88;;
70342;SDS011;57767;42.068;24.752;2023-10-09T04:38:38;14.52;;;1.75;;
70342;SDS011;57767;42.068;24.752;2023-10-09T04:39:40;10.88;;;1.70;;
70342;SDS011;57767;42.068;24.752;2023-10-09T04:41:13;7.15;;;1.88;;
70342;SDS011;57767;42.068;24.752;2023-10-09T04:42:28;11.32;;;1.90;;
70342;SDS011;57767;42.068;24.752;2023-10-09T04:43:37;16.50;;;2.08;;
70342;SDS011;57767;42.068;24.752;2023-10-09T04:44:46;11.40;;;1.80;;
70342;SDS011;57767;42.068;24.752;2023-10-09T04:46:03;8.65;;;1.85;;
70342;SDS011;57767;42.068;24.752;2023-10-09T04:47:08;8.75;;;1.88;;
70342;SDS011;57767;42.068;24.752;2023-10-09T04:48:15;8.80;;;1.85;;
70342;SDS011;57767;42.068;24.752;2023-10-09T04:49:34;10.55;;;1.95;;
70342;SDS011;57767;42.068;24.752;2023-10-09T04:51:03;9.70;;;1.80;;
70342;SDS011;57767;42.068;24.752;2023-10-09T04:52:23;8.10;;;2.03;;
70342;SDS011;57767;42.068;24.752;2023-10-09T04:53:31;10.00;;;1.77;;
70342;SDS011;57767;42.068;24.752;2023-10-09T04:54:40;5.72;;;1.73;;
70342;SDS011;57767;42.068;24.752;2023-10-09T04:56:02;5.32;;;2.05;;
70342;SDS011;57767;42.068;24.752;2023-10-09T04:57:06;14.75;;;2.20;;
70342;SDS011;57767;42.068;24.752;2023-10-09T04:58:22;9.75;;;2.10;;
70342;SDS011;57767;42.068;24.752;2023-10-09T04:59:27;7.80;;;1.92;;
70342;SDS011;57767;42.068;24.752;2023-10-09T05:00:29;13.55;;;1.35;;
70342;SDS011;57767;42.068;24.752;2023-10-09T05:01:31;6.88;;;1.77;;
70342;SDS011;57767;42.068;24.752;2023-10-09T05:02:38;12.93;;;2.08;;
70342;SDS011;57767;42.068;24.752;2023-10-09T05:03:40;3.58;;;1.48;;
70342;SDS011;57767;42.068;24.752;2023-10-09T05:04:42;9.02;;;1.60;;
70342;SDS011;57767;42.068;24.752;2023-10-09T05:05:44;9.05;;;1.88;;
70342;SDS011;57767;42.068;24.752;2023-10-09T05:06:47;7.40;;;1.85;;
70342;SDS011;57767;42.068;24.752;2023-10-09T05:07:56;6.78;;;1.70;;
70342;SDS011;57767;42.068;24.752;2023-10-09T05:08:58;11.38;;;1.95;;
70342;SDS011;57767;42.068;24.752;2023-10-09T05:10:09;11.32;;;2.15;;
70342;SDS011;57767;42.068;24.752;2023-10-09T05:11:19;9.38;;;1.70;;
70342;SDS011;57767;42.068;24.752;2023-10-09T05:12:46;9.32;;;1.83;;
70342;SDS011;57767;42.068;24.752;2023-10-09T05:13:48;7.55;;;1.98;;
70342;SDS011;57767;42.068;24.752;2023-10-09T05:14:59;12.52;;;2.15;;
70342;SDS011;57767;42.068;24.752;2023-10-09T05:16:14;13.55;;;1.95;;
70342;SDS011;57767;42.068;24.752;2023-10-09T05:17:20;6.93;;;2.00;;
70342;SDS011;57767;42.068;24.752;2023-10-09T05:18:27;10.65;;;1.65;;
70342;SDS011;57767;42.068;24.752;2023-10-09T05:19:28;8.55;;;1.90;;
70342;SDS011;57767;42.068;24.752;2023-10-09T05:20:35;14.52;;;1.83;;
70342;SDS011;57767;42.068;24.752;2023-10-09T05:21:55;8.32;;;1.90;;
70342;SDS011;57767;42.068;24.752;2023-10-09T05:22:59;7.97;;;1.73;;
70342;SDS011;57767;42.068;24.752;2023-10-09T05:25:27;9.00;;;1.70;;
70342;SDS011;57767;42.068;24.752;2023-10-09T05:26:54;9.40;;;1.85;;
70342;SDS011;57767;42.068;24.752;2023-10-09T05:28:13;5.75;;;1.73;;
70342;SDS011;57767;42.068;24.752;2023-10-09T05:29:32;4.97;;;1.55;;
70342;SDS011;57767;42.068;24.752;2023-10-09T05:30:34;12.38;;;2.30;;
70342;SDS011;57767;42.068;24.752;2023-10-09T05:31:36;6.88;;;1.77;;
70342;SDS011;57767;42.068;24.752;2023-10-09T05:32:57;5.57;;;1.60;;
70342;SDS011;57767;42.068;24.752;2023-10-09T05:34:22;5.22;;;1.67;;
70342;SDS011;57767;42.068;24.752;2023-10-09T05:35:35;6.10;;;1.88;;
70342;SDS011;57767;42.068;24.752;2023-10-09T05:36:56;7.95;;;1.42;;
70342;SDS011;57767;42.068;24.752;2023-10-09T05:38:12;7.18;;;2.03;;
70342;SDS011;57767;42.068;24.752;2023-10-09T05:39:24;4.65;;;1.33;;
70342;SDS011;57767;42.068;24.752;2023-10-09T05:40:42;5.25;;;1.73;;
70342;SDS011;57767;42.068;24.752;2023-10-09T05:41:47;4.45;;;1.85;;
70342;SDS011;57767;42.068;24.752;2023-10-09T05:43:01;6.35;;;2.20;;
70342;SDS011;57767;42.068;24.752;2023-10-09T05:44:04;6.65;;;1.85;;
70342;SDS011;57767;42.068;24.752;2023-10-09T05:45:24;10.02;;;2.53;;
70342;SDS011;57767;42.068;24.752;2023-10-09T05:47:05;5.78;;;2.55;;
70342;SDS011;57767;42.068;24.752;2023-10-09T05:48:25;9.77;;;2.50;;
70342;SDS011;57767;42.068;24.752;2023-10-09T05:49:27;6.78;;;2.42;;
70342;SDS011;57767;42.068;24.752;2023-10-09T05:50:47;10.05;;;2.97;;
70342;SDS011;57767;42.068;24.752;2023-10-09T05:51:57;11.10;;;2.50;;
70342;SDS011;57767;42.068;24.752;2023-10-09T05:53:19;10.43;;;2.40;;
70342;SDS011;57767;42.068;24.752;2023-10-09T05:54:39;4.93;;;2.33;;
70342;SDS011;57767;42.068;24.752;2023-10-09T05:56:16;10.57;;;2.97;;
70342;SDS011;57767;42.068;24.752;2023-10-09T05:57:50;7.68;;;3.10;;
70342;SDS011;57767;42.068;24.752;2023-10-09T05:59:10;9.70;;;2.85;;
70342;SDS011;57767;42.068;24.752;2023-10-09T06:00:30;9.85;;;2.50;;
70342;SDS011;57767;42.068;24.752;2023-10-09T06:01:51;7.95;;;3.33;;
70342;SDS011;57767;42.068;24.752;2023-10-09T06:03:24;8.82;;;2.65;;
70342;SDS011;57767;42.068;24.752;2023-10-09T06:04:49;8.25;;;3.28;;
70342;SDS011;57767;42.068;24.752;2023-10-09T06:05:56;9.82;;;2.97;;
70342;SDS011;57767;42.068;24.752;2023-10-09T06:06:58;7.05;;;2.75;;
70342;SDS011;57767;42.068;24.752;2023-10-09T06:08:02;6.82;;;2.83;;
70342;SDS011;57767;42.068;24.752;2023-10-09T06:09:08;10.45;;;4.90;;
70342;SDS011;57767;42.068;24.752;2023-10-09T06:10:17;8.43;;;2.85;;
70342;SDS011;57767;42.068;24.752;2023-10-09T06:11:34;9.85;;;3.08;;
70342;SDS011;57767;42.068;24.752;2023-10-09T06:12:36;11.82;;;3.38;;
70342;SDS011;57767;42.068;24.752;2023-10-09T06:13:49;7.90;;;3.28;;
70342;SDS011;57767;42.068;24.752;2023-10-09T06:15:03;6.60;;;2.70;;
70342;SDS011;57767;42.068;24.752;2023-10-09T06:16:21;8.52;;;2.80;;
70342;SDS011;57767;42.068;24.752;2023-10-09T06:17:41;6.10;;;2.42;;
70342;SDS011;57767;42.068;24.752;2023-10-09T06:18:51;6.38;;;2.45;;
70342;SDS011;57767;42.068;24.752;2023-10-09T06:20:09;9.77;;;2.75;;
70342;SDS011;57767;42.068;24.752;2023-10-09T06:21:47;10.32;;;2.40;;
70342;SDS011;57767;42.068;24.752;2023-10-09T06:22:54;5.50;;;2.10;;
70342;SDS011;57767;42.068;24.752;2023-10-09T06:23:58;10.48;;;2.78;;
70342;SDS011;57767;42.068;24.752;2023-10-09T06:25:19;5.38;;;2.55;;
70342;SDS011;57767;42.068;24.752;2023-10-09T06:26:28;9.45;;;2.95;;
70342;SDS011;57767;42.068;24.752;2023-10-09T06:27:34;6.70;;;3.00;;
70342;SDS011;57767;42.068;24.752;2023-10-09T06:28:36;6.78;;;2.97;;
70342;SDS011;57767;42.068;24.752;2023-10-09T06:29:41;10.32;;;3.58;;
70342;SDS011;57767;42.068;24.752;2023-10-09T06:30:46;8.48;;;3.55;;
70342;SDS011;57767;42.068;24.752;2023-10-09T06:31:48;6.28;;;2.92;;
70342;SDS011;57767;42.068;24.752;2023-10-09T06:32:59;10.30;;;2.88;;
70342;SDS011;57767;42.068;24.752;2023-10-09T06:34:04;5.18;;;2.85;;
70342;SDS011;57767;42.068;24.752;2023-10-09T06:35:17;6.97;;;2.92;;
70342;SDS011;57767;42.068;24.752;2023-10-09T06:36:31;13.65;;;3.28;;
70342;SDS011;57767;42.068;24.752;2023-10-09T06:37:33;14.00;;;3.45;;
70342;SDS011;57767;42.068;24.752;2023-10-09T06:38:35;7.43;;;3.05;;
70342;SDS011;57767;42.068;24.752;2023-10-09T06:39:55;10.55;;;3.33;;
70342;SDS011;57767;42.068;24.752;2023-10-09T06:40:57;9.90;;;3.33;;
70342;SDS011;57767;42.068;24.752;2023-10-09T06:42:05;10.82;;;3.25;;
70342;SDS011;57767;42.068;24.752;2023-10-09T06:43:32;10.38;;;3.35;;
70342;SDS011;57767;42.068;24.752;2023-10-09T06:44:38;7.60;;;3.30;;
70342;SDS011;57767;42.068;24.752;2023-10-09T06:46:14;9.85;;;3.45;;